sensor_id;sensor_type;location;lat;lon;timestamp;P1;durP1;ratioP1;P2;durP2;ratioP2
34433;SDS011;34290;48.562;13.384;2023-02-22T00:00:33;14.17;;;7.67;;
34433;SDS011;34290;48.562;13.384;2023-02-22T00:03:09;18.57;;;9.10;;
34433;SDS011;34290;48.562;13.384;2023-02-22T00:05:39;21.70;;;9.17;;
34433;SDS011;34290;48.562;13.384;2023-02-22T00:08:09;23.10;;;9.90;;
34433;SDS011;34290;48.562;13.384;2023-02-22T00:10:38;16.63;;;9.43;;
34433;SDS011;34290;48.562;13.384;2023-02-22T00:13:06;20.83;;;10.40;;
34433;SDS011;34290;48.562;13.384;2023-02-22T00:15:35;20.20;;;10.07;;
34433;SDS011;34290;48.562;13.384;2023-02-22T00:18:05;21.37;;;10.20;;
34433;SDS011;34290;48.562;13.384;2023-02-22T00:20:34;25.87;;;11.20;;
34433;SDS011;34290;48.562;13.384;2023-02-22T00:23:03;19.63;;;9.77;;
34433;SDS011;34290;48.562;13.384;2023-02-22T00:25:31;30.87;;;11.73;;
34433;SDS011;34290;48.562;13.384;2023-02-22T00:28:00;24.43;;;12.40;;
34433;SDS011;34290;48.562;13.384;2023-02-22T00:30:29;24.20;;;11.50;;
34433;SDS011;34290;48.562;13.384;2023-02-22T00:32:57;28.43;;;11.70;;
34433;SDS011;34290;48.562;13.384;2023-02-22T00:35:26;34.00;;;13.17;;
34433;SDS011;34290;48.562;13.384;2023-02-22T00:37:55;28.33;;;13.77;;
34433;SDS011;34290;48.562;13.384;2023-02-22T00:40:23;39.97;;;13.70;;
34433;SDS011;34290;48.562;13.384;2023-02-22T00:42:52;40.97;;;12.87;;
34433;SDS011;34290;48.562;13.384;2023-02-22T00:45:21;32.40;;;11.53;;
34433;SDS011;34290;48.562;13.384;2023-02-22T00:47:50;45.27;;;11.73;;
34433;SDS011;34290;48.562;13.384;2023-02-22T00:50:19;41.10;;;12.03;;
34433;SDS011;34290;48.562;13.384;2023-02-22T00:52:46;54.37;;;12.67;;
34433;SDS011;34290;48.562;13.384;2023-02-22T00:55:14;58.33;;;13.03;;
34433;SDS011;34290;48.562;13.384;2023-02-22T00:57:43;57.17;;;13.00;;
34433;SDS011;34290;48.562;13.384;2023-02-22T01:00:14;46.83;;;12.33;;
34433;SDS011;34290;48.562;13.384;2023-02-22T01:02:43;81.93;;;13.70;;
34433;SDS011;34290;48.562;13.384;2023-02-22T01:05:13;40.40;;;11.67;;
34433;SDS011;34290;48.562;13.384;2023-02-22T01:07:40;35.57;;;12.77;;
34433;SDS011;34290;48.562;13.384;2023-02-22T01:10:07;30.47;;;11.77;;
34433;SDS011;34290;48.562;13.384;2023-02-22T01:12:35;35.97;;;13.33;;
34433;SDS011;34290;48.562;13.384;2023-02-22T01:15:02;153.47;;;44.90;;
34433;SDS011;34290;48.562;13.384;2023-02-22T01:17:34;64.53;;;21.17;;
34433;SDS011;34290;48.562;13.384;2023-02-22T01:20:04;39.13;;;14.43;;
34433;SDS011;34290;48.562;13.384;2023-02-22T01:22:36;38.13;;;13.67;;
34433;SDS011;34290;48.562;13.384;2023-02-22T01:25:06;29.10;;;12.43;;
34433;SDS011;34290;48.562;13.384;2023-02-22T01:27:33;35.47;;;13.07;;
34433;SDS011;34290;48.562;13.384;2023-02-22T01:30:01;39.63;;;13.83;;
34433;SDS011;34290;48.562;13.384;2023-02-22T01:32:32;33.03;;;12.57;;
34433;SDS011;34290;48.562;13.384;2023-02-22T01:35:00;29.93;;;12.17;;
34433;SDS011;34290;48.562;13.384;2023-02-22T01:37:30;25.80;;;12.53;;
34433;SDS011;34290;48.562;13.384;2023-02-22T01:39:57;31.90;;;12.03;;
34433;SDS011;34290;48.562;13.384;2023-02-22T01:42:24;32.23;;;12.90;;
34433;SDS011;34290;48.562;13.384;2023-02-22T01:48:04;25.57;;;11.20;;
34433;SDS011;34290;48.562;13.384;2023-02-22T01:50:34;32.90;;;11.77;;
34433;SDS011;34290;48.562;13.384;2023-02-22T01:53:07;50.57;;;13.00;;
34433;SDS011;34290;48.562;13.384;2023-02-22T01:55:36;32.40;;;12.13;;
34433;SDS011;34290;48.562;13.384;2023-02-22T01:58:04;36.30;;;11.67;;
34433;SDS011;34290;48.562;13.384;2023-02-22T02:00:33;30.67;;;12.20;;
34433;SDS011;34290;48.562;13.384;2023-02-22T02:03:01;34.83;;;12.90;;
34433;SDS011;34290;48.562;13.384;2023-02-22T02:05:31;33.47;;;13.70;;
34433;SDS011;34290;48.562;13.384;2023-02-22T02:08:00;36.50;;;12.67;;
34433;SDS011;34290;48.562;13.384;2023-02-22T02:10:35;24.30;;;12.57;;
34433;SDS011;34290;48.562;13.384;2023-02-22T02:13:02;29.40;;;14.03;;
34433;SDS011;34290;48.562;13.384;2023-02-22T02:15:30;24.27;;;12.20;;
34433;SDS011;34290;48.562;13.384;2023-02-22T02:17:59;29.13;;;12.50;;
34433;SDS011;34290;48.562;13.384;2023-02-22T02:20:28;45.30;;;13.60;;
34433;SDS011;34290;48.562;13.384;2023-02-22T02:23:07;26.60;;;12.00;;
34433;SDS011;34290;48.562;13.384;2023-02-22T02:26:00;30.93;;;12.17;;
34433;SDS011;34290;48.562;13.384;2023-02-22T02:34:53;34.83;;;12.13;;
34433;SDS011;34290;48.562;13.384;2023-02-22T02:37:31;27.83;;;12.00;;
34433;SDS011;34290;48.562;13.384;2023-02-22T02:40:05;25.50;;;12.53;;
34433;SDS011;34290;48.562;13.384;2023-02-22T02:42:43;34.87;;;12.57;;
34433;SDS011;34290;48.562;13.384;2023-02-22T02:45:17;27.73;;;12.53;;
34433;SDS011;34290;48.562;13.384;2023-02-22T02:47:50;23.87;;;11.87;;
34433;SDS011;34290;48.562;13.384;2023-02-22T02:50:23;36.60;;;14.33;;
34433;SDS011;34290;48.562;13.384;2023-02-22T02:52:53;25.70;;;12.67;;
34433;SDS011;34290;48.562;13.384;2023-02-22T02:55:23;26.13;;;12.63;;
34433;SDS011;34290;48.562;13.384;2023-02-22T02:57:50;27.23;;;13.80;;
34433;SDS011;34290;48.562;13.384;2023-02-22T03:00:19;26.80;;;13.67;;
34433;SDS011;34290;48.562;13.384;2023-02-22T03:02:57;32.07;;;13.20;;
34433;SDS011;34290;48.562;13.384;2023-02-22T03:05:42;25.77;;;11.77;;
34433;SDS011;34290;48.562;13.384;2023-02-22T03:08:22;41.87;;;12.93;;
34433;SDS011;34290;48.562;13.384;2023-02-22T03:10:58;43.50;;;14.27;;
34433;SDS011;34290;48.562;13.384;2023-02-22T03:13:39;40.97;;;14.13;;
34433;SDS011;34290;48.562;13.384;2023-02-22T03:16:14;39.87;;;13.57;;
34433;SDS011;34290;48.562;13.384;2023-02-22T03:18:49;29.20;;;13.13;;
34433;SDS011;34290;48.562;13.384;2023-02-22T03:21:23;27.63;;;12.33;;
34433;SDS011;34290;48.562;13.384;2023-02-22T03:23:58;25.83;;;11.70;;
34433;SDS011;34290;48.562;13.384;2023-02-22T03:26:33;29.47;;;11.40;;
34433;SDS011;34290;48.562;13.384;2023-02-22T03:29:05;31.20;;;12.03;;
34433;SDS011;34290;48.562;13.384;2023-02-22T03:31:36;38.97;;;12.80;;
34433;SDS011;34290;48.562;13.384;2023-02-22T03:34:09;32.23;;;12.70;;
34433;SDS011;34290;48.562;13.384;2023-02-22T03:36:40;28.87;;;12.50;;
34433;SDS011;34290;48.562;13.384;2023-02-22T03:39:12;26.13;;;12.30;;
34433;SDS011;34290;48.562;13.384;2023-02-22T03:41:42;24.77;;;12.20;;
34433;SDS011;34290;48.562;13.384;2023-02-22T03:44:16;28.07;;;12.30;;
34433;SDS011;34290;48.562;13.384;2023-02-22T03:46:47;27.60;;;12.70;;
34433;SDS011;34290;48.562;13.384;2023-02-22T03:49:18;26.63;;;13.23;;
34433;SDS011;34290;48.562;13.384;2023-02-22T03:51:54;30.73;;;13.40;;
34433;SDS011;34290;48.562;13.384;2023-02-22T03:54:21;29.77;;;13.13;;
34433;SDS011;34290;48.562;13.384;2023-02-22T03:56:49;32.20;;;13.60;;
34433;SDS011;34290;48.562;13.384;2023-02-22T03:59:19;28.60;;;12.47;;
34433;SDS011;34290;48.562;13.384;2023-02-22T04:01:50;31.33;;;13.10;;
34433;SDS011;34290;48.562;13.384;2023-02-22T04:04:18;48.83;;;14.90;;
34433;SDS011;34290;48.562;13.384;2023-02-22T04:06:47;29.97;;;13.10;;
34433;SDS011;34290;48.562;13.384;2023-02-22T04:09:15;25.13;;;12.60;;
34433;SDS011;34290;48.562;13.384;2023-02-22T04:11:43;38.60;;;13.57;;
34433;SDS011;34290;48.562;13.384;2023-02-22T04:14:10;27.23;;;13.50;;
34433;SDS011;34290;48.562;13.384;2023-02-22T04:16:37;25.60;;;12.53;;
34433;SDS011;34290;48.562;13.384;2023-02-22T04:19:04;25.27;;;12.00;;
34433;SDS011;34290;48.562;13.384;2023-02-22T04:21:32;23.47;;;12.23;;
34433;SDS011;34290;48.562;13.384;2023-02-22T04:23:59;27.33;;;11.63;;
34433;SDS011;34290;48.562;13.384;2023-02-22T04:26:26;38.07;;;13.03;;
34433;SDS011;34290;48.562;13.384;2023-02-22T04:28:53;23.70;;;12.00;;
34433;SDS011;34290;48.562;13.384;2023-02-22T04:31:20;48.13;;;15.60;;
34433;SDS011;34290;48.562;13.384;2023-02-22T04:33:47;41.40;;;13.40;;
34433;SDS011;34290;48.562;13.384;2023-02-22T04:36:14;29.10;;;13.20;;
34433;SDS011;34290;48.562;13.384;2023-02-22T04:38:42;28.63;;;12.73;;
34433;SDS011;34290;48.562;13.384;2023-02-22T04:41:09;41.20;;;13.37;;
34433;SDS011;34290;48.562;13.384;2023-02-22T04:43:37;38.37;;;13.17;;
34433;SDS011;34290;48.562;13.384;2023-02-22T04:46:04;29.83;;;12.73;;
34433;SDS011;34290;48.562;13.384;2023-02-22T04:48:31;42.17;;;13.13;;
34433;SDS011;34290;48.562;13.384;2023-02-22T04:50:58;36.57;;;12.93;;
34433;SDS011;34290;48.562;13.384;2023-02-22T04:53:25;32.70;;;12.90;;
34433;SDS011;34290;48.562;13.384;2023-02-22T04:55:53;42.00;;;13.53;;
34433;SDS011;34290;48.562;13.384;2023-02-22T04:58:20;40.10;;;13.63;;
34433;SDS011;34290;48.562;13.384;2023-02-22T05:00:47;23.53;;;11.63;;
34433;SDS011;34290;48.562;13.384;2023-02-22T05:03:14;25.77;;;11.47;;
34433;SDS011;34290;48.562;13.384;2023-02-22T05:05:41;26.00;;;11.73;;
34433;SDS011;34290;48.562;13.384;2023-02-22T05:08:08;40.73;;;12.33;;
34433;SDS011;34290;48.562;13.384;2023-02-22T05:10:35;26.17;;;11.67;;
34433;SDS011;34290;48.562;13.384;2023-02-22T05:13:03;31.70;;;12.73;;
34433;SDS011;34290;48.562;13.384;2023-02-22T05:15:31;28.77;;;12.37;;
34433;SDS011;34290;48.562;13.384;2023-02-22T05:17:58;25.90;;;11.67;;
34433;SDS011;34290;48.562;13.384;2023-02-22T05:20:25;27.83;;;11.90;;
34433;SDS011;34290;48.562;13.384;2023-02-22T05:22:55;27.50;;;12.23;;
34433;SDS011;34290;48.562;13.384;2023-02-22T05:25:24;22.23;;;11.30;;
34433;SDS011;34290;48.562;13.384;2023-02-22T05:27:51;23.70;;;11.60;;
34433;SDS011;34290;48.562;13.384;2023-02-22T05:30:21;29.83;;;12.13;;
34433;SDS011;34290;48.562;13.384;2023-02-22T05:32:55;25.07;;;11.73;;
34433;SDS011;34290;48.562;13.384;2023-02-22T05:35:23;23.77;;;11.33;;
34433;SDS011;34290;48.562;13.384;2023-02-22T05:37:50;27.47;;;11.77;;
34433;SDS011;34290;48.562;13.384;2023-02-22T05:40:18;28.57;;;12.87;;
34433;SDS011;34290;48.562;13.384;2023-02-22T05:42:46;24.67;;;11.67;;
34433;SDS011;34290;48.562;13.384;2023-02-22T05:45:13;30.37;;;12.70;;
34433;SDS011;34290;48.562;13.384;2023-02-22T05:47:43;51.67;;;12.80;;
34433;SDS011;34290;48.562;13.384;2023-02-22T05:50:10;33.13;;;12.63;;
34433;SDS011;34290;48.562;13.384;2023-02-22T05:52:37;34.80;;;12.47;;
34433;SDS011;34290;48.562;13.384;2023-02-22T05:55:04;27.93;;;11.57;;
34433;SDS011;34290;48.562;13.384;2023-02-22T05:57:31;28.40;;;12.73;;
34433;SDS011;34290;48.562;13.384;2023-02-22T05:59:59;32.13;;;12.23;;
34433;SDS011;34290;48.562;13.384;2023-02-22T06:02:25;38.27;;;13.43;;
34433;SDS011;34290;48.562;13.384;2023-02-22T06:04:54;29.03;;;12.83;;
34433;SDS011;34290;48.562;13.384;2023-02-22T06:07:21;34.87;;;12.30;;
34433;SDS011;34290;48.562;13.384;2023-02-22T06:09:48;28.27;;;11.30;;
34433;SDS011;34290;48.562;13.384;2023-02-22T06:12:14;26.07;;;12.03;;
34433;SDS011;34290;48.562;13.384;2023-02-22T06:14:42;27.80;;;11.53;;
34433;SDS011;34290;48.562;13.384;2023-02-22T06:17:10;34.87;;;13.10;;
34433;SDS011;34290;48.562;13.384;2023-02-22T06:19:38;27.47;;;12.07;;
34433;SDS011;34290;48.562;13.384;2023-02-22T06:22:06;33.93;;;12.83;;
34433;SDS011;34290;48.562;13.384;2023-02-22T06:24:41;27.13;;;12.97;;
34433;SDS011;34290;48.562;13.384;2023-02-22T06:27:08;29.27;;;12.13;;
34433;SDS011;34290;48.562;13.384;2023-02-22T06:29:35;27.90;;;12.73;;
34433;SDS011;34290;48.562;13.384;2023-02-22T06:32:05;23.47;;;11.87;;
34433;SDS011;34290;48.562;13.384;2023-02-22T06:34:32;23.60;;;11.87;;
34433;SDS011;34290;48.562;13.384;2023-02-22T06:36:59;26.40;;;11.93;;
34433;SDS011;34290;48.562;13.384;2023-02-22T06:39:27;27.70;;;11.47;;
34433;SDS011;34290;48.562;13.384;2023-02-22T06:41:54;23.33;;;11.67;;
34433;SDS011;34290;48.562;13.384;2023-02-22T06:44:21;25.73;;;11.97;;
34433;SDS011;34290;48.562;13.384;2023-02-22T06:46:49;29.93;;;12.30;;
34433;SDS011;34290;48.562;13.384;2023-02-22T06:49:16;22.97;;;11.10;;
34433;SDS011;34290;48.562;13.384;2023-02-22T06:51:44;26.37;;;11.20;;
34433;SDS011;34290;48.562;13.384;2023-02-22T06:54:12;24.13;;;12.10;;
34433;SDS011;34290;48.562;13.384;2023-02-22T06:56:40;23.57;;;11.43;;
34433;SDS011;34290;48.562;13.384;2023-02-22T06:59:10;25.80;;;11.43;;
34433;SDS011;34290;48.562;13.384;2023-02-22T07:01:39;24.37;;;12.30;;
34433;SDS011;34290;48.562;13.384;2023-02-22T07:04:06;22.63;;;10.73;;
34433;SDS011;34290;48.562;13.384;2023-02-22T07:06:33;21.83;;;11.10;;
34433;SDS011;34290;48.562;13.384;2023-02-22T07:09:00;24.10;;;10.67;;
34433;SDS011;34290;48.562;13.384;2023-02-22T07:11:27;27.20;;;11.13;;
34433;SDS011;34290;48.562;13.384;2023-02-22T07:13:55;16.67;;;9.10;;
34433;SDS011;34290;48.562;13.384;2023-02-22T07:16:22;18.50;;;9.53;;
34433;SDS011;34290;48.562;13.384;2023-02-22T07:18:49;15.37;;;8.37;;
34433;SDS011;34290;48.562;13.384;2023-02-22T07:21:16;21.43;;;10.57;;
34433;SDS011;34290;48.562;13.384;2023-02-22T07:23:49;19.60;;;10.27;;
34433;SDS011;34290;48.562;13.384;2023-02-22T07:26:17;22.30;;;10.50;;
34433;SDS011;34290;48.562;13.384;2023-02-22T07:28:44;22.10;;;10.20;;
34433;SDS011;34290;48.562;13.384;2023-02-22T07:31:13;23.90;;;11.23;;
34433;SDS011;34290;48.562;13.384;2023-02-22T07:33:40;24.10;;;10.87;;
34433;SDS011;34290;48.562;13.384;2023-02-22T07:36:07;19.30;;;10.10;;
34433;SDS011;34290;48.562;13.384;2023-02-22T07:38:35;19.90;;;10.80;;
34433;SDS011;34290;48.562;13.384;2023-02-22T07:41:02;18.67;;;10.47;;
34433;SDS011;34290;48.562;13.384;2023-02-22T07:43:29;16.83;;;9.63;;
34433;SDS011;34290;48.562;13.384;2023-02-22T07:45:57;16.83;;;9.40;;
34433;SDS011;34290;48.562;13.384;2023-02-22T07:48:29;15.20;;;8.73;;
34433;SDS011;34290;48.562;13.384;2023-02-22T07:50:56;14.90;;;8.23;;
34433;SDS011;34290;48.562;13.384;2023-02-22T07:53:24;15.03;;;7.63;;
34433;SDS011;34290;48.562;13.384;2023-02-22T07:55:54;12.70;;;7.70;;
34433;SDS011;34290;48.562;13.384;2023-02-22T07:58:22;11.30;;;6.67;;
34433;SDS011;34290;48.562;13.384;2023-02-22T08:00:51;10.57;;;6.47;;
34433;SDS011;34290;48.562;13.384;2023-02-22T08:03:18;9.40;;;5.83;;
34433;SDS011;34290;48.562;13.384;2023-02-22T08:05:49;10.73;;;6.93;;
34433;SDS011;34290;48.562;13.384;2023-02-22T08:08:18;9.03;;;6.00;;
34433;SDS011;34290;48.562;13.384;2023-02-22T08:10:45;9.33;;;6.27;;
34433;SDS011;34290;48.562;13.384;2023-02-22T08:13:13;10.17;;;6.33;;
34433;SDS011;34290;48.562;13.384;2023-02-22T08:15:40;9.43;;;6.03;;
34433;SDS011;34290;48.562;13.384;2023-02-22T08:18:08;10.40;;;6.20;;
34433;SDS011;34290;48.562;13.384;2023-02-22T08:20:37;10.40;;;6.30;;
34433;SDS011;34290;48.562;13.384;2023-02-22T08:23:11;8.93;;;5.70;;
34433;SDS011;34290;48.562;13.384;2023-02-22T08:25:39;9.07;;;5.73;;
34433;SDS011;34290;48.562;13.384;2023-02-22T08:28:08;10.03;;;6.10;;
34433;SDS011;34290;48.562;13.384;2023-02-22T08:30:37;8.83;;;5.73;;
34433;SDS011;34290;48.562;13.384;2023-02-22T08:33:06;7.97;;;5.30;;
34433;SDS011;34290;48.562;13.384;2023-02-22T08:35:34;10.50;;;5.43;;
34433;SDS011;34290;48.562;13.384;2023-02-22T08:38:02;8.73;;;5.53;;
34433;SDS011;34290;48.562;13.384;2023-02-22T08:40:33;7.63;;;5.10;;
34433;SDS011;34290;48.562;13.384;2023-02-22T08:43:01;8.68;;;5.60;;
34433;SDS011;34290;48.562;13.384;2023-02-22T08:45:28;8.00;;;5.40;;
34433;SDS011;34290;48.562;13.384;2023-02-22T08:47:56;7.45;;;4.90;;
34433;SDS011;34290;48.562;13.384;2023-02-22T08:50:24;6.80;;;5.00;;
34433;SDS011;34290;48.562;13.384;2023-02-22T08:52:52;8.27;;;4.97;;
34433;SDS011;34290;48.562;13.384;2023-02-22T08:55:23;7.70;;;5.20;;
34433;SDS011;34290;48.562;13.384;2023-02-22T08:57:55;7.35;;;4.97;;
34433;SDS011;34290;48.562;13.384;2023-02-22T09:00:23;6.97;;;4.93;;
34433;SDS011;34290;48.562;13.384;2023-02-22T09:02:50;8.70;;;5.15;;
34433;SDS011;34290;48.562;13.384;2023-02-22T09:05:18;8.10;;;4.55;;
34433;SDS011;34290;48.562;13.384;2023-02-22T09:07:45;6.53;;;4.43;;
34433;SDS011;34290;48.562;13.384;2023-02-22T09:10:12;9.50;;;4.60;;
34433;SDS011;34290;48.562;13.384;2023-02-22T09:12:40;6.75;;;4.40;;
34433;SDS011;34290;48.562;13.384;2023-02-22T09:15:09;9.45;;;4.60;;
34433;SDS011;34290;48.562;13.384;2023-02-22T09:17:37;8.10;;;5.00;;
34433;SDS011;34290;48.562;13.384;2023-02-22T09:20:04;8.38;;;4.80;;
34433;SDS011;34290;48.562;13.384;2023-02-22T09:22:32;8.27;;;4.32;;
34433;SDS011;34290;48.562;13.384;2023-02-22T09:24:59;10.27;;;5.47;;
34433;SDS011;34290;48.562;13.384;2023-02-22T09:27:26;7.95;;;4.80;;
34433;SDS011;34290;48.562;13.384;2023-02-22T09:29:53;8.75;;;5.20;;
34433;SDS011;34290;48.562;13.384;2023-02-22T09:32:22;9.07;;;5.40;;
34433;SDS011;34290;48.562;13.384;2023-02-22T09:34:51;9.75;;;6.25;;
34433;SDS011;34290;48.562;13.384;2023-02-22T09:37:18;13.00;;;6.10;;
34433;SDS011;34290;48.562;13.384;2023-02-22T09:39:45;11.93;;;5.70;;
34433;SDS011;34290;48.562;13.384;2023-02-22T09:42:15;11.65;;;5.63;;
34433;SDS011;34290;48.562;13.384;2023-02-22T09:44:53;12.48;;;5.72;;
34433;SDS011;34290;48.562;13.384;2023-02-22T09:47:32;10.77;;;5.25;;
34433;SDS011;34290;48.562;13.384;2023-02-22T09:50:15;8.20;;;5.22;;
34433;SDS011;34290;48.562;13.384;2023-02-22T09:52:50;9.05;;;4.90;;
34433;SDS011;34290;48.562;13.384;2023-02-22T09:55:25;21.63;;;5.38;;
34433;SDS011;34290;48.562;13.384;2023-02-22T09:57:59;11.48;;;5.30;;
34433;SDS011;34290;48.562;13.384;2023-02-22T10:00:29;10.35;;;5.35;;
34433;SDS011;34290;48.562;13.384;2023-02-22T10:03:02;10.07;;;5.38;;
34433;SDS011;34290;48.562;13.384;2023-02-22T10:05:43;8.23;;;4.80;;
34433;SDS011;34290;48.562;13.384;2023-02-22T10:08:14;10.50;;;5.00;;
34433;SDS011;34290;48.562;13.384;2023-02-22T10:10:45;7.93;;;4.88;;
34433;SDS011;34290;48.562;13.384;2023-02-22T10:13:23;9.45;;;4.60;;
34433;SDS011;34290;48.562;13.384;2023-02-22T10:15:54;7.72;;;4.20;;
34433;SDS011;34290;48.562;13.384;2023-02-22T10:24:36;7.82;;;4.00;;
34433;SDS011;34290;48.562;13.384;2023-02-22T10:27:13;7.45;;;4.28;;
34433;SDS011;34290;48.562;13.384;2023-02-22T10:29:45;6.25;;;3.83;;
34433;SDS011;34290;48.562;13.384;2023-02-22T10:32:18;5.53;;;3.85;;
34433;SDS011;34290;48.562;13.384;2023-02-22T10:34:49;6.53;;;3.95;;
34433;SDS011;34290;48.562;13.384;2023-02-22T10:37:22;7.88;;;3.97;;
34433;SDS011;34290;48.562;13.384;2023-02-22T10:39:52;5.32;;;3.10;;
34433;SDS011;34290;48.562;13.384;2023-02-22T10:42:24;5.65;;;3.35;;
34433;SDS011;34290;48.562;13.384;2023-02-22T10:44:53;5.75;;;3.10;;
34433;SDS011;34290;48.562;13.384;2023-02-22T10:47:20;5.70;;;3.60;;
34433;SDS011;34290;48.562;13.384;2023-02-22T10:49:48;5.63;;;3.20;;
34433;SDS011;34290;48.562;13.384;2023-02-22T10:52:23;5.85;;;3.35;;
34433;SDS011;34290;48.562;13.384;2023-02-22T10:54:53;7.93;;;3.78;;
34433;SDS011;34290;48.562;13.384;2023-02-22T10:57:24;6.70;;;3.40;;
34433;SDS011;34290;48.562;13.384;2023-02-22T10:59:53;6.13;;;3.20;;
34433;SDS011;34290;48.562;13.384;2023-02-22T11:02:29;7.30;;;3.70;;
34433;SDS011;34290;48.562;13.384;2023-02-22T11:04:59;6.10;;;3.17;;
34433;SDS011;34290;48.562;13.384;2023-02-22T11:07:31;6.60;;;3.70;;
34433;SDS011;34290;48.562;13.384;2023-02-22T11:10:00;6.25;;;3.80;;
34433;SDS011;34290;48.562;13.384;2023-02-22T11:12:31;4.95;;;3.45;;
34433;SDS011;34290;48.562;13.384;2023-02-22T11:17:51;6.93;;;3.95;;
34433;SDS011;34290;48.562;13.384;2023-02-22T11:20:21;5.88;;;3.70;;
34433;SDS011;34290;48.562;13.384;2023-02-22T11:22:52;7.32;;;3.70;;
34433;SDS011;34290;48.562;13.384;2023-02-22T11:25:21;6.78;;;3.60;;
34433;SDS011;34290;48.562;13.384;2023-02-22T11:27:50;7.75;;;3.53;;
34433;SDS011;34290;48.562;13.384;2023-02-22T11:30:26;7.28;;;3.60;;
34433;SDS011;34290;48.562;13.384;2023-02-22T11:32:56;6.88;;;3.67;;
34433;SDS011;34290;48.562;13.384;2023-02-22T11:35:37;7.82;;;3.40;;
34433;SDS011;34290;48.562;13.384;2023-02-22T11:38:10;6.00;;;3.20;;
34433;SDS011;34290;48.562;13.384;2023-02-22T11:40:41;4.88;;;3.00;;
34433;SDS011;34290;48.562;13.384;2023-02-22T11:43:11;6.07;;;2.95;;
34433;SDS011;34290;48.562;13.384;2023-02-22T11:45:54;7.18;;;3.60;;
34433;SDS011;34290;48.562;13.384;2023-02-22T11:48:28;6.45;;;3.50;;
34433;SDS011;34290;48.562;13.384;2023-02-22T11:51:02;6.20;;;3.03;;
34433;SDS011;34290;48.562;13.384;2023-02-22T11:53:45;4.38;;;3.10;;
34433;SDS011;34290;48.562;13.384;2023-02-22T11:56:24;9.68;;;3.08;;
34433;SDS011;34290;48.562;13.384;2023-02-22T11:58:59;6.97;;;3.00;;
34433;SDS011;34290;48.562;13.384;2023-02-22T12:01:34;8.00;;;3.10;;
34433;SDS011;34290;48.562;13.384;2023-02-22T12:04:16;5.43;;;3.13;;
34433;SDS011;34290;48.562;13.384;2023-02-22T12:07:06;7.82;;;3.20;;
34433;SDS011;34290;48.562;13.384;2023-02-22T12:09:45;6.70;;;3.30;;
34433;SDS011;34290;48.562;13.384;2023-02-22T12:12:17;5.07;;;3.00;;
34433;SDS011;34290;48.562;13.384;2023-02-22T12:14:53;6.97;;;3.08;;
34433;SDS011;34290;48.562;13.384;2023-02-22T12:17:36;5.57;;;3.08;;
34433;SDS011;34290;48.562;13.384;2023-02-22T12:20:16;6.53;;;2.92;;
34433;SDS011;34290;48.562;13.384;2023-02-22T12:22:50;6.25;;;3.22;;
34433;SDS011;34290;48.562;13.384;2023-02-22T12:25:23;5.03;;;3.05;;
34433;SDS011;34290;48.562;13.384;2023-02-22T12:27:54;4.82;;;2.75;;
34433;SDS011;34290;48.562;13.384;2023-02-22T12:30:25;5.22;;;2.80;;
34433;SDS011;34290;48.562;13.384;2023-02-22T12:32:56;6.35;;;2.90;;
34433;SDS011;34290;48.562;13.384;2023-02-22T12:35:25;8.00;;;3.35;;
34433;SDS011;34290;48.562;13.384;2023-02-22T12:37:57;5.68;;;2.97;;
34433;SDS011;34290;48.562;13.384;2023-02-22T12:40:31;8.43;;;3.33;;
34433;SDS011;34290;48.562;13.384;2023-02-22T12:43:03;7.25;;;3.40;;
34433;SDS011;34290;48.562;13.384;2023-02-22T12:45:38;5.60;;;3.40;;
34433;SDS011;34290;48.562;13.384;2023-02-22T12:48:19;5.18;;;2.97;;
34433;SDS011;34290;48.562;13.384;2023-02-22T12:51:02;6.38;;;2.90;;
34433;SDS011;34290;48.562;13.384;2023-02-22T12:53:41;5.97;;;3.30;;
34433;SDS011;34290;48.562;13.384;2023-02-22T12:56:16;6.70;;;3.38;;
34433;SDS011;34290;48.562;13.384;2023-02-22T12:58:48;7.05;;;3.00;;
34433;SDS011;34290;48.562;13.384;2023-02-22T13:01:20;8.02;;;3.03;;
34433;SDS011;34290;48.562;13.384;2023-02-22T13:03:51;5.78;;;3.28;;
34433;SDS011;34290;48.562;13.384;2023-02-22T13:06:26;7.35;;;3.50;;
34433;SDS011;34290;48.562;13.384;2023-02-22T13:09:15;7.20;;;3.05;;
34433;SDS011;34290;48.562;13.384;2023-02-22T13:11:56;5.30;;;2.95;;
34433;SDS011;34290;48.562;13.384;2023-02-22T13:14:39;6.28;;;3.20;;
34433;SDS011;34290;48.562;13.384;2023-02-22T13:17:24;6.18;;;3.10;;
34433;SDS011;34290;48.562;13.384;2023-02-22T13:19:58;5.00;;;2.83;;
34433;SDS011;34290;48.562;13.384;2023-02-22T13:22:32;5.68;;;3.05;;
34433;SDS011;34290;48.562;13.384;2023-02-22T13:25:05;5.55;;;2.97;;
34433;SDS011;34290;48.562;13.384;2023-02-22T13:27:40;4.70;;;2.90;;
34433;SDS011;34290;48.562;13.384;2023-02-22T13:30:15;6.95;;;3.08;;
34433;SDS011;34290;48.562;13.384;2023-02-22T13:32:50;5.75;;;3.05;;
34433;SDS011;34290;48.562;13.384;2023-02-22T13:35:40;7.22;;;3.17;;
34433;SDS011;34290;48.562;13.384;2023-02-22T13:38:32;6.43;;;2.95;;
34433;SDS011;34290;48.562;13.384;2023-02-22T13:41:18;5.07;;;3.15;;
34433;SDS011;34290;48.562;13.384;2023-02-22T13:47:15;7.70;;;3.10;;
34433;SDS011;34290;48.562;13.384;2023-02-22T13:50:01;5.80;;;2.70;;
34433;SDS011;34290;48.562;13.384;2023-02-22T13:52:44;5.65;;;2.80;;
34433;SDS011;34290;48.562;13.384;2023-02-22T13:55:15;8.75;;;3.20;;
34433;SDS011;34290;48.562;13.384;2023-02-22T13:57:45;4.95;;;2.85;;
34433;SDS011;34290;48.562;13.384;2023-02-22T14:00:38;5.15;;;2.70;;
34433;SDS011;34290;48.562;13.384;2023-02-22T14:03:27;5.57;;;3.22;;
34433;SDS011;34290;48.562;13.384;2023-02-22T14:06:04;6.82;;;2.75;;
34433;SDS011;34290;48.562;13.384;2023-02-22T14:08:42;5.72;;;2.90;;
34433;SDS011;34290;48.562;13.384;2023-02-22T14:14:12;6.10;;;3.03;;
34433;SDS011;34290;48.562;13.384;2023-02-22T14:16:43;6.70;;;3.13;;
34433;SDS011;34290;48.562;13.384;2023-02-22T14:19:19;6.10;;;3.05;;
34433;SDS011;34290;48.562;13.384;2023-02-22T14:21:54;5.70;;;2.90;;
34433;SDS011;34290;48.562;13.384;2023-02-22T14:24:26;5.20;;;2.80;;
34433;SDS011;34290;48.562;13.384;2023-02-22T14:26:56;6.75;;;3.05;;
34433;SDS011;34290;48.562;13.384;2023-02-22T14:29:25;7.22;;;3.80;;
34433;SDS011;34290;48.562;13.384;2023-02-22T14:31:58;5.45;;;3.28;;
34433;SDS011;34290;48.562;13.384;2023-02-22T14:37:15;6.13;;;3.53;;
34433;SDS011;34290;48.562;13.384;2023-02-22T14:39:44;6.28;;;3.60;;
34433;SDS011;34290;48.562;13.384;2023-02-22T14:42:15;7.60;;;3.28;;
34433;SDS011;34290;48.562;13.384;2023-02-22T14:44:48;6.13;;;3.25;;
34433;SDS011;34290;48.562;13.384;2023-02-22T14:47:23;5.00;;;3.05;;
34433;SDS011;34290;48.562;13.384;2023-02-22T14:49:56;5.82;;;3.10;;
34433;SDS011;34290;48.562;13.384;2023-02-22T14:52:30;5.13;;;2.90;;
34433;SDS011;34290;48.562;13.384;2023-02-22T14:55:11;7.97;;;3.17;;
34433;SDS011;34290;48.562;13.384;2023-02-22T14:57:45;7.80;;;3.50;;
34433;SDS011;34290;48.562;13.384;2023-02-22T15:00:22;5.50;;;3.40;;
34433;SDS011;34290;48.562;13.384;2023-02-22T15:02:56;7.20;;;4.18;;
34433;SDS011;34290;48.562;13.384;2023-02-22T15:05:26;6.13;;;3.47;;
34433;SDS011;34290;48.562;13.384;2023-02-22T15:07:55;7.22;;;3.22;;
34433;SDS011;34290;48.562;13.384;2023-02-22T15:10:25;6.78;;;3.22;;